McAllister, Montana
Current Conditions -  °F | °C
As of 11:56 PM on Tuesday 21 Oct 2014 (Local Time) from KBZN Reporting Station
Overcast Overcast  
Wind Chill: 38°   Ceiling: 6500
Heat Index: 38°   Visibility: 10mi
Dew Point: 36°   Wind: 0mph
Humidity: 93%   Direction: NA
Pressure: 30.04"   Gusts: NA
Location:  45.44°N, 111.73°W
Report Text: KBZN 220556Z AUTO 00000KT 10SM OVC065 03/02 A3004 RMK AO2 SLP164 60004 T00330022 10061 20028 51009
Loading
Personal Weather Stations






























Interactive Weather Map New forecast layout! Learn more

10-Day Weather Forecast

Advertisements
Track Severe Weather on mobile